sensor_id;sensor_type;location;lat;lon;timestamp;P1;durP1;ratioP1;P2;durP2;ratioP2
74626;SDS011;63132;52.268;5.192;2024-01-07T00:02:20;20.80;;;12.68;;
74626;SDS011;63132;52.268;5.192;2024-01-07T00:04:46;23.60;;;14.02;;
74626;SDS011;63132;52.268;5.192;2024-01-07T00:07:11;24.90;;;13.47;;
74626;SDS011;63132;52.268;5.192;2024-01-07T00:09:36;27.87;;;13.20;;
74626;SDS011;63132;52.268;5.192;2024-01-07T00:12:02;25.63;;;14.13;;
74626;SDS011;63132;52.268;5.192;2024-01-07T00:14:27;24.15;;;14.60;;
74626;SDS011;63132;52.268;5.192;2024-01-07T00:16:52;26.43;;;14.57;;
74626;SDS011;63132;52.268;5.192;2024-01-07T00:19:18;23.37;;;13.70;;
74626;SDS011;63132;52.268;5.192;2024-01-07T00:21:46;23.17;;;13.90;;
74626;SDS011;63132;52.268;5.192;2024-01-07T00:24:12;23.20;;;13.55;;
74626;SDS011;63132;52.268;5.192;2024-01-07T00:26:37;22.77;;;13.67;;
74626;SDS011;63132;52.268;5.192;2024-01-07T00:29:02;21.33;;;12.67;;
74626;SDS011;63132;52.268;5.192;2024-01-07T00:31:28;23.03;;;13.67;;
74626;SDS011;63132;52.268;5.192;2024-01-07T00:33:53;21.25;;;11.93;;
74626;SDS011;63132;52.268;5.192;2024-01-07T00:36:18;22.90;;;13.13;;
74626;SDS011;63132;52.268;5.192;2024-01-07T00:38:44;21.57;;;12.67;;
74626;SDS011;63132;52.268;5.192;2024-01-07T00:41:09;21.37;;;12.33;;
74626;SDS011;63132;52.268;5.192;2024-01-07T00:43:34;20.73;;;12.93;;
74626;SDS011;63132;52.268;5.192;2024-01-07T00:46:00;20.20;;;12.00;;
74626;SDS011;63132;52.268;5.192;2024-01-07T00:48:25;21.60;;;12.53;;
74626;SDS011;63132;52.268;5.192;2024-01-07T00:50:50;23.97;;;14.00;;
74626;SDS011;63132;52.268;5.192;2024-01-07T00:53:16;23.55;;;13.35;;
74626;SDS011;63132;52.268;5.192;2024-01-07T00:55:41;22.80;;;13.47;;
74626;SDS011;63132;52.268;5.192;2024-01-07T00:58:06;24.80;;;14.37;;
74626;SDS011;63132;52.268;5.192;2024-01-07T01:00:31;23.30;;;14.10;;
74626;SDS011;63132;52.268;5.192;2024-01-07T01:02:57;22.43;;;13.93;;
74626;SDS011;63132;52.268;5.192;2024-01-07T01:07:48;28.20;;;14.60;;
74626;SDS011;63132;52.268;5.192;2024-01-07T01:10:13;25.73;;;14.20;;
74626;SDS011;63132;52.268;5.192;2024-01-07T01:12:41;24.35;;;13.57;;
74626;SDS011;63132;52.268;5.192;2024-01-07T01:15:08;23.33;;;12.80;;
74626;SDS011;63132;52.268;5.192;2024-01-07T01:17:33;20.38;;;12.25;;
74626;SDS011;63132;52.268;5.192;2024-01-07T01:20:01;23.17;;;13.00;;
74626;SDS011;63132;52.268;5.192;2024-01-07T01:22:27;22.80;;;12.73;;
74626;SDS011;63132;52.268;5.192;2024-01-07T01:24:53;22.37;;;13.27;;
74626;SDS011;63132;52.268;5.192;2024-01-07T01:27:18;19.07;;;12.60;;
74626;SDS011;63132;52.268;5.192;2024-01-07T01:29:44;23.33;;;13.70;;
74626;SDS011;63132;52.268;5.192;2024-01-07T01:32:09;26.10;;;13.63;;
74626;SDS011;63132;52.268;5.192;2024-01-07T01:34:35;23.27;;;13.93;;
74626;SDS011;63132;52.268;5.192;2024-01-07T01:37:01;24.45;;;13.35;;
74626;SDS011;63132;52.268;5.192;2024-01-07T01:39:26;26.80;;;14.10;;
74626;SDS011;63132;52.268;5.192;2024-01-07T01:41:51;23.70;;;13.73;;
74626;SDS011;63132;52.268;5.192;2024-01-07T01:44:19;26.13;;;13.77;;
74626;SDS011;63132;52.268;5.192;2024-01-07T01:46:45;21.83;;;12.53;;
74626;SDS011;63132;52.268;5.192;2024-01-07T01:49:11;26.02;;;14.38;;
74626;SDS011;63132;52.268;5.192;2024-01-07T01:51:37;21.92;;;13.48;;
74626;SDS011;63132;52.268;5.192;2024-01-07T01:54:03;27.48;;;13.98;;
74626;SDS011;63132;52.268;5.192;2024-01-07T01:56:28;25.15;;;14.45;;
74626;SDS011;63132;52.268;5.192;2024-01-07T01:58:54;27.00;;;14.50;;
74626;SDS011;63132;52.268;5.192;2024-01-07T02:01:20;28.70;;;15.65;;
74626;SDS011;63132;52.268;5.192;2024-01-07T02:03:48;32.00;;;15.85;;
74626;SDS011;63132;52.268;5.192;2024-01-07T02:06:13;27.27;;;16.63;;
74626;SDS011;63132;52.268;5.192;2024-01-07T02:08:39;35.83;;;19.08;;
74626;SDS011;63132;52.268;5.192;2024-01-07T02:13:59;34.65;;;19.83;;
74626;SDS011;63132;52.268;5.192;2024-01-07T02:16:25;36.37;;;18.40;;
74626;SDS011;63132;52.268;5.192;2024-01-07T02:18:50;39.37;;;18.77;;
74626;SDS011;63132;52.268;5.192;2024-01-07T02:21:16;36.15;;;19.83;;
74626;SDS011;63132;52.268;5.192;2024-01-07T02:23:41;35.20;;;18.77;;
74626;SDS011;63132;52.268;5.192;2024-01-07T02:26:07;35.10;;;19.33;;
74626;SDS011;63132;52.268;5.192;2024-01-07T02:28:32;36.85;;;18.83;;
74626;SDS011;63132;52.268;5.192;2024-01-07T02:30:58;35.35;;;18.92;;
74626;SDS011;63132;52.268;5.192;2024-01-07T02:33:24;33.73;;;17.77;;
74626;SDS011;63132;52.268;5.192;2024-01-07T02:35:49;32.92;;;16.92;;
74626;SDS011;63132;52.268;5.192;2024-01-07T02:38:15;35.63;;;18.17;;
74626;SDS011;63132;52.268;5.192;2024-01-07T02:40:40;34.15;;;19.00;;
74626;SDS011;63132;52.268;5.192;2024-01-07T02:43:05;33.00;;;18.55;;
74626;SDS011;63132;52.268;5.192;2024-01-07T02:45:31;34.20;;;18.47;;
74626;SDS011;63132;52.268;5.192;2024-01-07T02:47:56;35.40;;;18.20;;
74626;SDS011;63132;52.268;5.192;2024-01-07T02:50:22;34.70;;;18.23;;
74626;SDS011;63132;52.268;5.192;2024-01-07T02:52:47;36.23;;;19.50;;
74626;SDS011;63132;52.268;5.192;2024-01-07T02:55:12;33.17;;;18.30;;
74626;SDS011;63132;52.268;5.192;2024-01-07T02:57:38;30.83;;;18.02;;
74626;SDS011;63132;52.268;5.192;2024-01-07T03:00:04;32.73;;;18.30;;
74626;SDS011;63132;52.268;5.192;2024-01-07T03:02:30;31.73;;;17.27;;
74626;SDS011;63132;52.268;5.192;2024-01-07T03:04:55;31.13;;;17.65;;
74626;SDS011;63132;52.268;5.192;2024-01-07T03:07:20;32.07;;;17.90;;
74626;SDS011;63132;52.268;5.192;2024-01-07T03:09:46;34.43;;;18.77;;
74626;SDS011;63132;52.268;5.192;2024-01-07T03:12:14;31.10;;;16.77;;
74626;SDS011;63132;52.268;5.192;2024-01-07T03:14:41;31.13;;;17.33;;
74626;SDS011;63132;52.268;5.192;2024-01-07T03:17:06;32.70;;;17.55;;
74626;SDS011;63132;52.268;5.192;2024-01-07T03:19:32;38.50;;;18.45;;
74626;SDS011;63132;52.268;5.192;2024-01-07T03:21:57;35.72;;;17.92;;
74626;SDS011;63132;52.268;5.192;2024-01-07T03:24:23;30.43;;;16.33;;
74626;SDS011;63132;52.268;5.192;2024-01-07T03:26:48;34.90;;;19.10;;
74626;SDS011;63132;52.268;5.192;2024-01-07T03:29:13;31.63;;;16.73;;
74626;SDS011;63132;52.268;5.192;2024-01-07T03:31:38;34.90;;;17.77;;
74626;SDS011;63132;52.268;5.192;2024-01-07T03:34:04;32.40;;;18.67;;
74626;SDS011;63132;52.268;5.192;2024-01-07T03:36:29;35.83;;;19.03;;
74626;SDS011;63132;52.268;5.192;2024-01-07T03:38:54;35.03;;;18.60;;
74626;SDS011;63132;52.268;5.192;2024-01-07T03:41:20;32.37;;;17.30;;
74626;SDS011;63132;52.268;5.192;2024-01-07T03:43:46;30.75;;;17.35;;
74626;SDS011;63132;52.268;5.192;2024-01-07T03:46:12;37.72;;;18.52;;
74626;SDS011;63132;52.268;5.192;2024-01-07T03:48:38;36.85;;;20.00;;
74626;SDS011;63132;52.268;5.192;2024-01-07T03:51:04;38.28;;;20.42;;
74626;SDS011;63132;52.268;5.192;2024-01-07T03:53:29;34.75;;;18.83;;
74626;SDS011;63132;52.268;5.192;2024-01-07T03:55:55;35.23;;;18.40;;
74626;SDS011;63132;52.268;5.192;2024-01-07T03:58:20;35.10;;;18.90;;
74626;SDS011;63132;52.268;5.192;2024-01-07T04:00:46;36.25;;;18.83;;
74626;SDS011;63132;52.268;5.192;2024-01-07T04:03:11;34.47;;;18.27;;
74626;SDS011;63132;52.268;5.192;2024-01-07T04:05:36;36.40;;;19.60;;
74626;SDS011;63132;52.268;5.192;2024-01-07T04:10:28;33.63;;;18.17;;
74626;SDS011;63132;52.268;5.192;2024-01-07T04:12:53;35.47;;;19.03;;
74626;SDS011;63132;52.268;5.192;2024-01-07T04:15:19;37.97;;;20.33;;
74626;SDS011;63132;52.268;5.192;2024-01-07T04:17:44;32.25;;;18.63;;
74626;SDS011;63132;52.268;5.192;2024-01-07T04:20:12;37.75;;;18.73;;
74626;SDS011;63132;52.268;5.192;2024-01-07T04:22:38;37.70;;;18.35;;
74626;SDS011;63132;52.268;5.192;2024-01-07T04:25:04;34.20;;;18.38;;
74626;SDS011;63132;52.268;5.192;2024-01-07T04:27:36;35.00;;;17.15;;
74626;SDS011;63132;52.268;5.192;2024-01-07T04:30:05;36.92;;;18.30;;
74626;SDS011;63132;52.268;5.192;2024-01-07T04:32:31;34.58;;;18.52;;
74626;SDS011;63132;52.268;5.192;2024-01-07T04:34:56;33.85;;;18.50;;
74626;SDS011;63132;52.268;5.192;2024-01-07T04:37:22;29.67;;;15.93;;
74626;SDS011;63132;52.268;5.192;2024-01-07T04:39:48;32.38;;;17.45;;
74626;SDS011;63132;52.268;5.192;2024-01-07T04:42:14;32.77;;;18.90;;
74626;SDS011;63132;52.268;5.192;2024-01-07T04:44:40;30.35;;;16.73;;
74626;SDS011;63132;52.268;5.192;2024-01-07T04:47:08;30.97;;;17.83;;
74626;SDS011;63132;52.268;5.192;2024-01-07T04:49:48;29.02;;;17.00;;
74626;SDS011;63132;52.268;5.192;2024-01-07T04:52:13;31.73;;;16.37;;
74626;SDS011;63132;52.268;5.192;2024-01-07T04:54:38;28.20;;;15.97;;
74626;SDS011;63132;52.268;5.192;2024-01-07T04:57:06;30.55;;;17.08;;
74626;SDS011;63132;52.268;5.192;2024-01-07T04:59:32;32.10;;;17.80;;
74626;SDS011;63132;52.268;5.192;2024-01-07T05:01:57;31.17;;;15.80;;
74626;SDS011;63132;52.268;5.192;2024-01-07T05:04:22;26.80;;;15.43;;
74626;SDS011;63132;52.268;5.192;2024-01-07T05:06:47;28.60;;;16.17;;
74626;SDS011;63132;52.268;5.192;2024-01-07T05:09:13;41.20;;;18.47;;
74626;SDS011;63132;52.268;5.192;2024-01-07T05:11:41;27.50;;;15.87;;
74626;SDS011;63132;52.268;5.192;2024-01-07T05:14:06;30.15;;;15.95;;
74626;SDS011;63132;52.268;5.192;2024-01-07T05:16:32;28.73;;;16.47;;
74626;SDS011;63132;52.268;5.192;2024-01-07T05:18:57;31.30;;;15.77;;
74626;SDS011;63132;52.268;5.192;2024-01-07T05:21:22;28.07;;;17.10;;
74626;SDS011;63132;52.268;5.192;2024-01-07T05:23:48;28.00;;;15.77;;
74626;SDS011;63132;52.268;5.192;2024-01-07T05:26:13;28.27;;;16.00;;
74626;SDS011;63132;52.268;5.192;2024-01-07T05:28:38;32.27;;;18.37;;
74626;SDS011;63132;52.268;5.192;2024-01-07T05:31:04;31.60;;;16.40;;
74626;SDS011;63132;52.268;5.192;2024-01-07T05:33:29;31.20;;;17.80;;
74626;SDS011;63132;52.268;5.192;2024-01-07T05:35:54;31.37;;;18.60;;
74626;SDS011;63132;52.268;5.192;2024-01-07T05:38:20;31.23;;;17.20;;
74626;SDS011;63132;52.268;5.192;2024-01-07T05:40:45;31.70;;;15.73;;
74626;SDS011;63132;52.268;5.192;2024-01-07T05:43:10;30.10;;;16.97;;
74626;SDS011;63132;52.268;5.192;2024-01-07T05:45:35;34.13;;;16.97;;
74626;SDS011;63132;52.268;5.192;2024-01-07T05:48:01;27.63;;;15.77;;
74626;SDS011;63132;52.268;5.192;2024-01-07T05:50:26;31.83;;;15.97;;
74626;SDS011;63132;52.268;5.192;2024-01-07T05:52:51;29.20;;;15.63;;
74626;SDS011;63132;52.268;5.192;2024-01-07T05:55:18;26.30;;;15.27;;
74626;SDS011;63132;52.268;5.192;2024-01-07T05:57:44;27.55;;;14.40;;
74626;SDS011;63132;52.268;5.192;2024-01-07T06:00:09;24.60;;;13.63;;
74626;SDS011;63132;52.268;5.192;2024-01-07T06:02:36;24.67;;;14.27;;
74626;SDS011;63132;52.268;5.192;2024-01-07T06:05:02;27.40;;;14.83;;
74626;SDS011;63132;52.268;5.192;2024-01-07T06:07:28;24.40;;;13.75;;
74626;SDS011;63132;52.268;5.192;2024-01-07T06:09:53;23.67;;;14.10;;
74626;SDS011;63132;52.268;5.192;2024-01-07T06:12:18;27.70;;;14.63;;
74626;SDS011;63132;52.268;5.192;2024-01-07T06:14:44;25.07;;;13.83;;
74626;SDS011;63132;52.268;5.192;2024-01-07T06:17:09;24.43;;;14.43;;
74626;SDS011;63132;52.268;5.192;2024-01-07T06:19:34;23.33;;;15.27;;
74626;SDS011;63132;52.268;5.192;2024-01-07T06:22:00;26.10;;;15.13;;
74626;SDS011;63132;52.268;5.192;2024-01-07T06:24:25;27.40;;;14.33;;
74626;SDS011;63132;52.268;5.192;2024-01-07T06:26:50;37.37;;;14.60;;
74626;SDS011;63132;52.268;5.192;2024-01-07T06:29:16;25.98;;;13.77;;
74626;SDS011;63132;52.268;5.192;2024-01-07T06:31:44;30.30;;;14.17;;
74626;SDS011;63132;52.268;5.192;2024-01-07T06:34:10;23.33;;;13.30;;
74626;SDS011;63132;52.268;5.192;2024-01-07T06:36:38;27.35;;;14.30;;
74626;SDS011;63132;52.268;5.192;2024-01-07T06:39:04;25.25;;;13.25;;
74626;SDS011;63132;52.268;5.192;2024-01-07T06:41:30;22.17;;;12.48;;
74626;SDS011;63132;52.268;5.192;2024-01-07T06:43:55;22.40;;;13.10;;
74626;SDS011;63132;52.268;5.192;2024-01-07T06:46:22;22.20;;;12.30;;
74626;SDS011;63132;52.268;5.192;2024-01-07T06:48:47;23.85;;;13.30;;
74626;SDS011;63132;52.268;5.192;2024-01-07T06:51:13;21.50;;;13.00;;
74626;SDS011;63132;52.268;5.192;2024-01-07T06:53:40;29.05;;;12.95;;
74626;SDS011;63132;52.268;5.192;2024-01-07T06:56:07;19.45;;;11.48;;
74626;SDS011;63132;52.268;5.192;2024-01-07T06:58:32;23.55;;;12.90;;
74626;SDS011;63132;52.268;5.192;2024-01-07T07:00:58;21.83;;;12.55;;
74626;SDS011;63132;52.268;5.192;2024-01-07T07:03:23;25.88;;;13.07;;
74626;SDS011;63132;52.268;5.192;2024-01-07T07:05:49;20.63;;;13.20;;
74626;SDS011;63132;52.268;5.192;2024-01-07T07:08:15;21.03;;;12.50;;
74626;SDS011;63132;52.268;5.192;2024-01-07T07:10:41;21.45;;;12.40;;
74626;SDS011;63132;52.268;5.192;2024-01-07T07:13:06;21.93;;;12.83;;
74626;SDS011;63132;52.268;5.192;2024-01-07T07:15:32;24.60;;;12.53;;
74626;SDS011;63132;52.268;5.192;2024-01-07T07:17:57;20.70;;;11.97;;
74626;SDS011;63132;52.268;5.192;2024-01-07T07:20:22;19.57;;;11.37;;
74626;SDS011;63132;52.268;5.192;2024-01-07T07:22:48;24.20;;;12.63;;
74626;SDS011;63132;52.268;5.192;2024-01-07T07:25:13;22.00;;;12.63;;
74626;SDS011;63132;52.268;5.192;2024-01-07T07:27:39;22.75;;;12.77;;
74626;SDS011;63132;52.268;5.192;2024-01-07T07:30:05;22.77;;;12.03;;
74626;SDS011;63132;52.268;5.192;2024-01-07T07:32:31;22.52;;;12.15;;
74626;SDS011;63132;52.268;5.192;2024-01-07T07:35:09;23.35;;;12.25;;
74626;SDS011;63132;52.268;5.192;2024-01-07T07:37:43;22.15;;;11.70;;
74626;SDS011;63132;52.268;5.192;2024-01-07T07:40:09;19.65;;;12.15;;
74626;SDS011;63132;52.268;5.192;2024-01-07T07:42:38;23.00;;;13.10;;
74626;SDS011;63132;52.268;5.192;2024-01-07T07:45:04;24.02;;;13.65;;
74626;SDS011;63132;52.268;5.192;2024-01-07T07:47:30;23.20;;;13.52;;
74626;SDS011;63132;52.268;5.192;2024-01-07T07:49:56;26.88;;;13.70;;
74626;SDS011;63132;52.268;5.192;2024-01-07T07:52:21;22.00;;;13.00;;
74626;SDS011;63132;52.268;5.192;2024-01-07T07:54:50;21.35;;;13.48;;
74626;SDS011;63132;52.268;5.192;2024-01-07T07:57:19;23.35;;;13.02;;
74626;SDS011;63132;52.268;5.192;2024-01-07T07:59:46;19.50;;;12.27;;
74626;SDS011;63132;52.268;5.192;2024-01-07T08:02:21;20.92;;;12.18;;
74626;SDS011;63132;52.268;5.192;2024-01-07T08:05:07;20.88;;;12.45;;
74626;SDS011;63132;52.268;5.192;2024-01-07T08:10:21;18.77;;;11.48;;
74626;SDS011;63132;52.268;5.192;2024-01-07T08:13:00;18.73;;;11.95;;
74626;SDS011;63132;52.268;5.192;2024-01-07T08:15:25;18.67;;;11.32;;
74626;SDS011;63132;52.268;5.192;2024-01-07T08:17:51;17.23;;;10.47;;
74626;SDS011;63132;52.268;5.192;2024-01-07T08:21:32;15.98;;;10.27;;
74626;SDS011;63132;52.268;5.192;2024-01-07T08:24:38;16.85;;;9.73;;
74626;SDS011;63132;52.268;5.192;2024-01-07T08:27:15;17.27;;;10.55;;
74626;SDS011;63132;52.268;5.192;2024-01-07T08:29:44;17.80;;;10.35;;
74626;SDS011;63132;52.268;5.192;2024-01-07T08:32:27;16.50;;;9.15;;
74626;SDS011;63132;52.268;5.192;2024-01-07T08:38:14;21.50;;;10.25;;
74626;SDS011;63132;52.268;5.192;2024-01-07T08:43:55;17.05;;;9.93;;
74626;SDS011;63132;52.268;5.192;2024-01-07T08:46:24;15.27;;;9.18;;
74626;SDS011;63132;52.268;5.192;2024-01-07T08:48:49;17.33;;;9.25;;
74626;SDS011;63132;52.268;5.192;2024-01-07T08:51:19;14.68;;;8.85;;
74626;SDS011;63132;52.268;5.192;2024-01-07T08:53:57;16.85;;;8.43;;
74626;SDS011;63132;52.268;5.192;2024-01-07T08:56:55;13.10;;;8.40;;
74626;SDS011;63132;52.268;5.192;2024-01-07T09:00:00;16.60;;;7.72;;
74626;SDS011;63132;52.268;5.192;2024-01-07T09:02:25;14.13;;;7.63;;
74626;SDS011;63132;52.268;5.192;2024-01-07T09:04:59;11.45;;;7.68;;
74626;SDS011;63132;52.268;5.192;2024-01-07T09:07:40;12.05;;;7.60;;
74626;SDS011;63132;52.268;5.192;2024-01-07T09:10:16;11.88;;;6.40;;
74626;SDS011;63132;52.268;5.192;2024-01-07T09:12:43;11.98;;;6.10;;
74626;SDS011;63132;52.268;5.192;2024-01-07T09:15:11;10.60;;;6.07;;
74626;SDS011;63132;52.268;5.192;2024-01-07T09:17:37;11.87;;;6.07;;
74626;SDS011;63132;52.268;5.192;2024-01-07T09:20:03;12.40;;;6.38;;
74626;SDS011;63132;52.268;5.192;2024-01-07T09:22:32;11.68;;;6.18;;
74626;SDS011;63132;52.268;5.192;2024-01-07T09:24:57;11.20;;;6.43;;
74626;SDS011;63132;52.268;5.192;2024-01-07T09:27:23;15.43;;;6.30;;
74626;SDS011;63132;52.268;5.192;2024-01-07T09:29:48;14.83;;;7.07;;
74626;SDS011;63132;52.268;5.192;2024-01-07T09:32:13;8.83;;;4.87;;
74626;SDS011;63132;52.268;5.192;2024-01-07T09:34:38;12.43;;;5.57;;
74626;SDS011;63132;52.268;5.192;2024-01-07T09:37:04;8.13;;;5.67;;
74626;SDS011;63132;52.268;5.192;2024-01-07T09:39:29;10.30;;;5.40;;
74626;SDS011;63132;52.268;5.192;2024-01-07T09:41:54;9.83;;;4.77;;
74626;SDS011;63132;52.268;5.192;2024-01-07T09:44:22;11.00;;;5.78;;
74626;SDS011;63132;52.268;5.192;2024-01-07T09:46:53;7.75;;;4.75;;
74626;SDS011;63132;52.268;5.192;2024-01-07T09:49:19;10.80;;;4.85;;
74626;SDS011;63132;52.268;5.192;2024-01-07T09:51:54;10.27;;;4.80;;
74626;SDS011;63132;52.268;5.192;2024-01-07T09:54:27;9.93;;;5.10;;
74626;SDS011;63132;52.268;5.192;2024-01-07T09:57:02;11.07;;;4.68;;
74626;SDS011;63132;52.268;5.192;2024-01-07T09:59:31;7.13;;;4.35;;
74626;SDS011;63132;52.268;5.192;2024-01-07T10:04:43;7.20;;;4.03;;
74626;SDS011;63132;52.268;5.192;2024-01-07T10:07:16;7.15;;;3.72;;
74626;SDS011;63132;52.268;5.192;2024-01-07T10:09:45;6.93;;;3.72;;
74626;SDS011;63132;52.268;5.192;2024-01-07T10:14:55;7.53;;;3.70;;
74626;SDS011;63132;52.268;5.192;2024-01-07T10:17:55;7.20;;;3.88;;
74626;SDS011;63132;52.268;5.192;2024-01-07T10:20:33;8.52;;;4.22;;
74626;SDS011;63132;52.268;5.192;2024-01-07T10:23:01;7.88;;;3.88;;
74626;SDS011;63132;52.268;5.192;2024-01-07T10:25:33;5.93;;;3.50;;
74626;SDS011;63132;52.268;5.192;2024-01-07T10:28:01;6.97;;;3.60;;
74626;SDS011;63132;52.268;5.192;2024-01-07T10:30:30;6.05;;;3.53;;
74626;SDS011;63132;52.268;5.192;2024-01-07T10:32:58;6.32;;;3.20;;
74626;SDS011;63132;52.268;5.192;2024-01-07T10:35:27;6.18;;;3.17;;
74626;SDS011;63132;52.268;5.192;2024-01-07T10:38:06;6.63;;;3.53;;
74626;SDS011;63132;52.268;5.192;2024-01-07T10:40:34;7.00;;;3.40;;
74626;SDS011;63132;52.268;5.192;2024-01-07T10:42:59;6.88;;;3.00;;
74626;SDS011;63132;52.268;5.192;2024-01-07T10:45:24;9.93;;;3.27;;
74626;SDS011;63132;52.268;5.192;2024-01-07T10:47:59;10.65;;;5.85;;
74626;SDS011;63132;52.268;5.192;2024-01-07T10:50:31;6.00;;;3.20;;
74626;SDS011;63132;52.268;5.192;2024-01-07T10:52:58;6.97;;;3.35;;
74626;SDS011;63132;52.268;5.192;2024-01-07T10:55:33;6.05;;;2.58;;
74626;SDS011;63132;52.268;5.192;2024-01-07T10:58:01;6.97;;;3.70;;
74626;SDS011;63132;52.268;5.192;2024-01-07T11:00:28;10.23;;;3.53;;
74626;SDS011;63132;52.268;5.192;2024-01-07T11:05:39;9.88;;;3.83;;
74626;SDS011;63132;52.268;5.192;2024-01-07T11:13:34;10.25;;;4.63;;
74626;SDS011;63132;52.268;5.192;2024-01-07T11:16:03;7.10;;;4.15;;
74626;SDS011;63132;52.268;5.192;2024-01-07T11:18:30;7.70;;;3.80;;
74626;SDS011;63132;52.268;5.192;2024-01-07T11:21:02;7.70;;;4.32;;
74626;SDS011;63132;52.268;5.192;2024-01-07T11:26:05;6.82;;;3.85;;
74626;SDS011;63132;52.268;5.192;2024-01-07T11:29:32;7.50;;;3.67;;
74626;SDS011;63132;52.268;5.192;2024-01-07T11:34:52;5.57;;;3.15;;
74626;SDS011;63132;52.268;5.192;2024-01-07T11:37:19;5.60;;;2.67;;
74626;SDS011;63132;52.268;5.192;2024-01-07T11:39:46;5.93;;;2.78;;
74626;SDS011;63132;52.268;5.192;2024-01-07T11:42:13;4.40;;;2.38;;
74626;SDS011;63132;52.268;5.192;2024-01-07T11:47:35;4.45;;;2.47;;
74626;SDS011;63132;52.268;5.192;2024-01-07T11:50:03;4.13;;;2.60;;
74626;SDS011;63132;52.268;5.192;2024-01-07T11:52:29;5.70;;;2.60;;
74626;SDS011;63132;52.268;5.192;2024-01-07T11:54:56;4.05;;;2.33;;
74626;SDS011;63132;52.268;5.192;2024-01-07T11:57:33;5.38;;;2.40;;
74626;SDS011;63132;52.268;5.192;2024-01-07T12:00:00;4.90;;;2.35;;
74626;SDS011;63132;52.268;5.192;2024-01-07T12:02:26;6.10;;;2.00;;
74626;SDS011;63132;52.268;5.192;2024-01-07T12:04:55;4.93;;;2.10;;
74626;SDS011;63132;52.268;5.192;2024-01-07T12:07:20;6.97;;;2.87;;
74626;SDS011;63132;52.268;5.192;2024-01-07T12:09:46;4.53;;;2.30;;
74626;SDS011;63132;52.268;5.192;2024-01-07T12:12:22;5.55;;;2.10;;
74626;SDS011;63132;52.268;5.192;2024-01-07T12:14:48;6.82;;;2.00;;
74626;SDS011;63132;52.268;5.192;2024-01-07T12:17:16;6.65;;;2.35;;
74626;SDS011;63132;52.268;5.192;2024-01-07T12:19:42;4.05;;;1.80;;
74626;SDS011;63132;52.268;5.192;2024-01-07T12:22:07;5.55;;;2.20;;
74626;SDS011;63132;52.268;5.192;2024-01-07T12:24:33;5.57;;;1.60;;
74626;SDS011;63132;52.268;5.192;2024-01-07T12:27:05;4.90;;;1.73;;
74626;SDS011;63132;52.268;5.192;2024-01-07T12:29:37;3.55;;;1.88;;
74626;SDS011;63132;52.268;5.192;2024-01-07T12:32:04;3.63;;;1.95;;
74626;SDS011;63132;52.268;5.192;2024-01-07T12:34:30;3.33;;;2.03;;
74626;SDS011;63132;52.268;5.192;2024-01-07T12:36:56;3.53;;;1.80;;
74626;SDS011;63132;52.268;5.192;2024-01-07T12:39:21;5.20;;;1.80;;
74626;SDS011;63132;52.268;5.192;2024-01-07T12:41:47;5.23;;;2.00;;
74626;SDS011;63132;52.268;5.192;2024-01-07T12:44:12;3.33;;;2.10;;
74626;SDS011;63132;52.268;5.192;2024-01-07T12:46:37;3.77;;;2.20;;
74626;SDS011;63132;52.268;5.192;2024-01-07T12:49:03;4.18;;;1.80;;
74626;SDS011;63132;52.268;5.192;2024-01-07T12:51:28;4.53;;;2.10;;
74626;SDS011;63132;52.268;5.192;2024-01-07T12:53:54;4.60;;;1.83;;
74626;SDS011;63132;52.268;5.192;2024-01-07T12:56:21;4.25;;;1.60;;
74626;SDS011;63132;52.268;5.192;2024-01-07T12:58:47;4.50;;;2.10;;
74626;SDS011;63132;52.268;5.192;2024-01-07T13:01:12;4.23;;;2.07;;
74626;SDS011;63132;52.268;5.192;2024-01-07T13:03:37;3.30;;;1.65;;
74626;SDS011;63132;52.268;5.192;2024-01-07T13:06:03;3.80;;;1.92;;
74626;SDS011;63132;52.268;5.192;2024-01-07T13:08:28;4.60;;;2.05;;
74626;SDS011;63132;52.268;5.192;2024-01-07T13:10:54;6.43;;;1.90;;
74626;SDS011;63132;52.268;5.192;2024-01-07T13:13:20;3.45;;;1.90;;
74626;SDS011;63132;52.268;5.192;2024-01-07T13:15:45;6.57;;;2.20;;
74626;SDS011;63132;52.268;5.192;2024-01-07T13:18:11;3.07;;;1.87;;
74626;SDS011;63132;52.268;5.192;2024-01-07T13:20:37;4.07;;;1.90;;
74626;SDS011;63132;52.268;5.192;2024-01-07T13:23:04;5.57;;;1.80;;
74626;SDS011;63132;52.268;5.192;2024-01-07T13:25:30;5.60;;;1.77;;
74626;SDS011;63132;52.268;5.192;2024-01-07T13:27:56;4.35;;;2.13;;
74626;SDS011;63132;52.268;5.192;2024-01-07T13:30:21;3.77;;;2.03;;
74626;SDS011;63132;52.268;5.192;2024-01-07T13:35:37;6.10;;;2.30;;
74626;SDS011;63132;52.268;5.192;2024-01-07T13:38:03;4.63;;;2.33;;
74626;SDS011;63132;52.268;5.192;2024-01-07T13:40:31;3.70;;;2.08;;
74626;SDS011;63132;52.268;5.192;2024-01-07T13:42:56;4.45;;;2.03;;
74626;SDS011;63132;52.268;5.192;2024-01-07T13:45:27;4.33;;;2.30;;
74626;SDS011;63132;52.268;5.192;2024-01-07T13:47:53;5.05;;;1.83;;
74626;SDS011;63132;52.268;5.192;2024-01-07T13:50:18;5.57;;;2.10;;
74626;SDS011;63132;52.268;5.192;2024-01-07T13:52:43;6.90;;;1.87;;
74626;SDS011;63132;52.268;5.192;2024-01-07T13:55:11;3.60;;;1.90;;
74626;SDS011;63132;52.268;5.192;2024-01-07T13:57:37;3.03;;;1.60;;
74626;SDS011;63132;52.268;5.192;2024-01-07T14:00:02;3.88;;;1.88;;
74626;SDS011;63132;52.268;5.192;2024-01-07T14:02:34;4.00;;;1.80;;
74626;SDS011;63132;52.268;5.192;2024-01-07T14:05:02;2.85;;;1.67;;
74626;SDS011;63132;52.268;5.192;2024-01-07T14:07:28;3.25;;;1.73;;
74626;SDS011;63132;52.268;5.192;2024-01-07T14:09:53;4.70;;;1.87;;
74626;SDS011;63132;52.268;5.192;2024-01-07T14:12:18;3.77;;;1.90;;
74626;SDS011;63132;52.268;5.192;2024-01-07T14:14:44;4.40;;;1.60;;
74626;SDS011;63132;52.268;5.192;2024-01-07T14:17:09;2.63;;;1.70;;
74626;SDS011;63132;52.268;5.192;2024-01-07T14:19:34;5.30;;;1.60;;
74626;SDS011;63132;52.268;5.192;2024-01-07T14:21:59;2.87;;;1.73;;
74626;SDS011;63132;52.268;5.192;2024-01-07T14:24:25;3.90;;;1.85;;
74626;SDS011;63132;52.268;5.192;2024-01-07T14:26:51;3.80;;;1.73;;
74626;SDS011;63132;52.268;5.192;2024-01-07T14:29:16;2.83;;;1.80;;
74626;SDS011;63132;52.268;5.192;2024-01-07T14:31:42;2.47;;;1.50;;
74626;SDS011;63132;52.268;5.192;2024-01-07T14:34:07;3.57;;;1.50;;
74626;SDS011;63132;52.268;5.192;2024-01-07T14:36:39;3.50;;;2.00;;
74626;SDS011;63132;52.268;5.192;2024-01-07T14:39:04;5.05;;;2.05;;
74626;SDS011;63132;52.268;5.192;2024-01-07T14:41:30;6.70;;;2.10;;
74626;SDS011;63132;52.268;5.192;2024-01-07T14:43:55;3.83;;;2.10;;
74626;SDS011;63132;52.268;5.192;2024-01-07T14:46:21;8.23;;;2.10;;
74626;SDS011;63132;52.268;5.192;2024-01-07T14:48:46;4.05;;;2.40;;
74626;SDS011;63132;52.268;5.192;2024-01-07T14:51:11;4.13;;;2.10;;
74626;SDS011;63132;52.268;5.192;2024-01-07T14:53:37;4.40;;;2.23;;
74626;SDS011;63132;52.268;5.192;2024-01-07T14:56:02;4.57;;;2.60;;
74626;SDS011;63132;52.268;5.192;2024-01-07T14:58:27;4.30;;;2.22;;
74626;SDS011;63132;52.268;5.192;2024-01-07T15:00:53;4.40;;;2.53;;
74626;SDS011;63132;52.268;5.192;2024-01-07T15:03:18;7.40;;;2.30;;
74626;SDS011;63132;52.268;5.192;2024-01-07T15:05:46;11.70;;;3.38;;
74626;SDS011;63132;52.268;5.192;2024-01-07T15:08:11;7.47;;;3.03;;
74626;SDS011;63132;52.268;5.192;2024-01-07T15:10:40;10.85;;;3.10;;
74626;SDS011;63132;52.268;5.192;2024-01-07T15:13:06;6.85;;;2.80;;
74626;SDS011;63132;52.268;5.192;2024-01-07T15:15:34;6.00;;;3.08;;